Altha, Florida
Current Conditions -  °F | °C
As of 10:53 PM on Sunday 23 Nov 2014 (Local Time) from KMAI Reporting Station
Overcast Overcast  
Wind Chill: 65°   Ceiling: 700
Heat Index: 65°   Visibility: 10mi
Dew Point: 65°   Wind: 9mph
Humidity: 100%   Direction: 170°S
Pressure: 29.82"   Gusts: NA
Location:  30.57°N, 85.13°W
Report Text: KMAI 240453Z AUTO 17008KT 10SM BKN007 OVC019 18/18 A2982 RMK AO2 RAE08 SLP097 P0000 T01830183 $
Loading
Personal Weather Stations






























Interactive Weather Map New forecast layout! Learn more

10-Day Weather Forecast

Advertisements
Track Severe Weather on mobile